Whyalla, Australia
Current Conditions -  °F | °C
As of 4:00 AM on Tuesday 23 Dec 2014 (Local Time) from YWHA Reporting Station
Overcast Overcast  
Wind Chill: 66°   Ceiling: 1800
Heat Index: 66°   Visibility: 6mi
Dew Point: 63°   Wind: 15mph
Humidity: 88%   Direction: 210°SSW
Pressure: 29.8"   Gusts: NA
Location:  33.03°S, 137.59°E
Report Text: YWHA 221800Z AUTO 21013KT 9999 // OVC018 19/17 Q1009
Loading
Personal Weather Stations






























Interactive Weather Map New forecast layout! Learn more

10-Day Weather Forecast

Advertisements
Track Severe Weather on mobile